Time;durP1;ratioP1;P1;durP2;ratioP2;P2;SDS_P1;SDS_P2;PMS_P1;PMS_P2;Temp;Humidity;BMP_temperature;BMP_pressure;BME280_temperature;BME280_humidity;BME280_pressure;Samples;Min_cycle;Max_cycle;Signal;HPM_P1;HPM_P2
2021/12/20 00:04:09;;;;;;;32.83;11.20;;;;;;;-0.48;92.25;99511.34;10458780;28;20045;-72
2021/12/20 00:09:10;;;;;;;25.13;11.68;;;;;;;-0.14;92.58;99543.50;10458495;28;20161;-71
2021/12/20 00:14:11;;;;;;;22.00;11.43;;;;;;;0.25;92.55;99593.56;10457237;28;20036;-71
2021/12/20 00:19:11;;;;;;;24.90;11.05;;;;;;;-0.03;92.15;99527.84;10457507;28;20532;-71
2021/12/20 00:24:12;;;;;;;24.23;12.02;;;;;;;0.26;92.35;99581.34;10458128;28;20052;-71
2021/12/20 00:29:13;;;;;;;20.85;11.77;;;;;;;-0.71;91.86;99440.94;10458059;28;20032;-71
2021/12/20 00:34:14;;;;;;;21.75;11.90;;;;;;;-0.24;92.67;99542.53;10456137;28;20041;-71
2021/12/20 00:44:34;;;;;;;22.70;12.13;;;;;;;-0.41;92.26;99546.47;10456880;28;20040;-71
2021/12/20 00:49:35;;;;;;;25.55;11.77;;;;;;;-0.85;92.32;99492.47;10457007;28;20416;-74
2021/12/20 00:54:35;;;;;;;24.85;11.48;;;;;;;-1.25;92.28;99432.94;10490971;28;20082;-71
2021/12/20 00:59:36;;;;;;;20.75;11.15;;;;;;;-0.46;92.61;99565.06;10497628;28;20504;-71
2021/12/20 01:04:37;;;;;;;20.77;12.15;;;;;;;-0.41;92.55;99571.75;10497393;28;20484;-71
2021/12/20 01:09:38;;;;;;;26.90;11.88;;;;;;;-0.70;92.43;99506.94;10497042;28;20049;-71
2021/12/20 01:14:39;;;;;;;26.75;11.93;;;;;;;-0.56;92.70;99527.59;10478761;28;20454;-74
2021/12/20 01:19:40;;;;;;;21.27;11.48;;;;;;;-1.38;92.33;99391.31;10497744;28;20135;-71
2021/12/20 01:24:41;;;;;;;21.38;11.20;;;;;;;-0.73;92.32;99500.19;10495382;28;20131;-71
2021/12/20 01:29:42;;;;;;;23.38;11.85;;;;;;;-0.78;92.11;99501.47;10496020;28;20504;-71
2021/12/20 01:34:43;;;;;;;24.10;11.73;;;;;;;-1.62;91.47;99373.13;10495761;28;20127;-72
2021/12/20 01:39:44;;;;;;;22.90;10.95;;;;;;;-1.00;92.21;99497.06;10496683;28;20068;-71
2021/12/20 01:44:45;;;;;;;18.25;10.13;;;;;;;-1.45;92.04;99423.97;10495622;28;20083;-71
2021/12/20 01:50:02;;;;;;;20.13;11.18;;;;;;;-1.97;91.71;99332.34;10496158;28;20075;-71
2021/12/20 01:55:03;;;;;;;24.02;11.18;;;;;;;-1.15;91.82;99416.47;10495444;28;20086;-71
2021/12/20 02:00:10;;;;;;;24.95;12.35;;;;;;;-0.63;91.28;99458.56;10495803;28;20041;-72
2021/12/20 02:05:19;;;;;;;28.75;12.00;;;;;;;-0.56;91.33;99433.69;10477864;28;20045;-72
2021/12/20 02:10:20;;;;;;;25.00;11.80;;;;;;;-0.58;91.25;99398.25;10495513;28;20115;-71
2021/12/20 02:15:21;;;;;;;24.85;13.00;;;;;;;-0.63;91.36;99342.97;10477582;28;20131;-71
2021/12/20 02:20:28;;;;;;;22.95;13.40;;;;;;;0.21;91.47;99465.00;10494915;28;20036;-71
2021/12/20 02:25:30;;;;;;;24.08;13.30;;;;;;;0.38;91.99;99491.53;10494808;28;20510;-71
2021/12/20 02:41:08;;;;;;;27.55;14.18;;;;;;;0.70;91.99;99472.41;10503740;28;20046;-72
2021/12/20 02:51:38;;;;;;;29.02;14.35;;;;;;;-0.04;92.37;99301.63;10503587;28;20064;-72
2021/12/20 02:56:40;;;;;;;28.33;13.88;;;;;;;0.87;92.92;99411.72;10502303;28;20134;-71
2021/12/20 03:01:44;;;;;;;25.13;14.77;;;;;;;0.95;93.14;99403.22;10484679;28;20510;-71
2021/12/20 03:06:58;;;;;;;26.92;15.30;;;;;;;0.18;93.60;99271.13;10460615;28;20074;-74
2021/12/20 03:12:00;;;;;;;27.10;14.15;;;;;;;1.10;92.79;99410.56;10460189;28;20177;-74
2021/12/20 03:17:01;;;;;;;29.42;14.68;;;;;;;0.96;93.15;99371.72;10460006;28;20056;-74
2021/12/20 03:22:04;;;;;;;28.52;16.13;;;;;;;1.22;93.50;99386.97;10459730;28;20072;-74
2021/12/20 03:27:06;;;;;;;28.27;15.00;;;;;;;1.33;93.57;99405.19;10459884;28;20040;-74
2021/12/20 03:32:07;;;;;;;25.75;14.60;;;;;;;1.10;93.94;99352.22;10460188;28;20041;-74
2021/12/20 03:37:08;;;;;;;28.50;14.70;;;;;;;1.49;93.50;99410.72;10459324;28;20633;-74
2021/12/20 03:42:09;;;;;;;28.35;15.68;;;;;;;1.58;94.12;99430.88;10457937;28;20154;-73
2021/12/20 03:47:15;;;;;;;29.58;15.75;;;;;;;1.49;94.44;99409.91;10498124;28;20050;-75
2021/12/20 03:52:16;;;;;;;30.90;16.08;;;;;;;1.51;94.55;99400.16;10500344;28;20056;-75
2021/12/20 03:57:17;;;;;;;34.25;16.80;;;;;;;1.43;94.87;99397.38;10500191;28;20492;-75
2021/12/20 04:02:19;;;;;;;39.20;17.05;;;;;;;0.55;94.54;99215.78;10499541;28;20064;-75
2021/12/20 04:07:20;;;;;;;29.77;15.15;;;;;;;1.67;94.25;99386.53;10499505;28;20040;-74
2021/12/20 04:12:21;;;;;;;29.70;16.75;;;;;;;1.29;93.57;99292.13;10476053;28;20040;-73
2021/12/20 04:17:22;;;;;;;26.95;14.82;;;;;;;1.73;93.71;99383.38;10479618;28;20052;-72
2021/12/20 04:22:23;;;;;;;28.13;15.80;;;;;;;0.83;94.03;99246.41;10498609;28;20048;-71
2021/12/20 04:27:24;;;;;;;28.05;15.27;;;;;;;1.46;94.18;99331.66;10499152;28;20039;-79
2021/12/20 04:32:25;;;;;;;27.77;15.25;;;;;;;1.26;94.30;99318.56;10481090;28;20043;-79
2021/12/20 04:37:25;;;;;;;24.27;13.93;;;;;;;1.64;94.39;99361.47;10491477;28;20045;-74
2021/12/20 04:42:26;;;;;;;34.70;15.30;;;;;;;1.47;94.20;99354.28;10497103;28;20036;-74
2021/12/20 04:47:27;;;;;;;28.77;16.48;;;;;;;1.17;94.36;99306.28;10480381;28;20041;-72
2021/12/20 04:52:28;;;;;;;26.45;14.10;;;;;;;0.62;95.19;99180.31;10457216;28;20049;-73
2021/12/20 04:57:29;;;;;;;30.13;14.88;;;;;;;0.98;94.28;99233.78;10457709;28;20049;-74
2021/12/20 05:02:30;;;;;;;26.40;15.30;;;;;;;0.82;94.76;99216.00;10456352;28;20417;-74
2021/12/20 05:07:31;;;;;;;28.63;15.85;;;;;;;1.55;95.25;99325.63;10455783;28;20048;-73
2021/12/20 05:12:32;;;;;;;30.40;16.13;;;;;;;1.36;95.42;99269.66;10455586;28;20065;-74
2021/12/20 05:17:33;;;;;;;33.45;16.45;;;;;;;1.66;94.99;99304.56;10438196;28;20131;-74
2021/12/20 05:22:33;;;;;;;26.50;15.27;;;;;;;1.90;95.03;99334.75;10455205;28;20041;-73
2021/12/20 05:27:35;;;;;;;26.23;14.93;;;;;;;1.85;94.16;99284.59;10455951;28;20037;-73
2021/12/20 05:32:36;;;;;;;32.13;15.93;;;;;;;1.87;94.42;99269.56;10455506;28;20037;-74
2021/12/20 05:37:38;;;;;;;29.92;16.25;;;;;;;1.34;94.28;99166.09;10455560;28;20095;-74
2021/12/20 05:42:39;;;;;;;28.45;16.65;;;;;;;2.20;94.19;99287.44;10454948;28;20045;-74
2021/12/20 05:47:40;;;;;;;30.02;16.33;;;;;;;1.87;94.15;99225.88;10454761;28;20040;-74
2021/12/20 05:52:41;;;;;;;26.27;14.50;;;;;;;2.13;93.89;99277.69;10454090;28;20049;-74
2021/12/20 05:57:42;;;;;;;29.45;16.23;;;;;;;1.11;94.21;99129.78;10454775;28;20128;-74
2021/12/20 06:02:45;;;;;;;25.67;15.10;;;;;;;0.78;94.35;99101.38;10453878;28;20077;-73
2021/12/20 06:07:45;;;;;;;25.27;15.18;;;;;;;2.00;94.70;99304.16;10454985;28;20045;-74
2021/12/20 06:12:46;;;;;;;26.73;13.98;;;;;;;2.06;95.23;99261.69;10466024;28;20053;-74
2021/12/20 06:17:47;;;;;;;28.63;15.98;;;;;;;2.25;94.36;99287.03;10468464;28;20492;-74
2021/12/20 06:22:48;;;;;;;25.67;14.75;;;;;;;1.06;94.40;99095.34;10468209;28;20033;-74
2021/12/20 06:27:49;;;;;;;32.72;15.95;;;;;;;1.98;94.31;99251.91;10467712;28;20033;-74
2021/12/20 06:32:50;;;;;;;25.33;15.32;;;;;;;2.29;94.86;99291.84;10449666;28;20036;-74
2021/12/20 06:37:59;;;;;;;26.90;14.82;;;;;;;1.50;94.93;99144.63;10449324;28;20047;-74
2021/12/20 06:43:01;;;;;;;29.30;15.43;;;;;;;2.47;95.17;99285.88;10467576;28;20503;-76
2021/12/20 06:48:03;;;;;;;29.13;16.35;;;;;;;1.32;94.85;99089.56;10466818;28;20040;-74
2021/12/20 06:53:05;;;;;;;26.98;14.95;;;;;;;2.08;94.95;99185.59;10467486;28;20049;-73
2021/12/20 06:58:06;;;;;;;29.52;14.82;;;;;;;1.74;94.76;99126.69;10466803;28;20060;-74
2021/12/20 07:03:07;;;;;;;27.58;16.48;;;;;;;2.40;94.94;99221.91;10467191;28;20496;-73
2021/12/20 07:08:08;;;;;;;28.15;15.60;;;;;;;2.36;95.35;99210.03;10466934;28;20040;-73
2021/12/20 07:13:10;;;;;;;27.65;15.70;;;;;;;2.77;95.37;99250.72;10466375;28;20053;-74
2021/12/20 07:18:11;;;;;;;29.58;15.18;;;;;;;2.89;95.57;99254.81;10467534;28;20044;-73
2021/12/20 07:23:12;;;;;;;30.55;15.60;;;;;;;1.79;94.93;99082.53;10461325;28;20173;-73
2021/12/20 07:28:13;;;;;;;27.70;14.90;;;;;;;2.76;95.55;99228.09;10459890;28;20045;-74
2021/12/20 07:33:15;;;;;;;27.55;14.27;;;;;;;2.08;95.66;99107.00;10460129;28;20069;-73
2021/12/20 07:38:16;;;;;;;33.92;16.45;;;;;;;2.31;95.29;99134.47;10441461;28;20041;-73
2021/12/20 07:43:18;;;;;;;41.50;16.05;;;;;;;3.03;95.34;99277.13;10459407;28;20037;-74
2021/12/20 07:48:21;;;;;;;35.63;15.07;;;;;;;2.73;96.10;99247.56;10458770;28;20043;-74
2021/12/20 07:53:22;;;;;;;28.55;15.27;;;;;;;2.68;96.72;99257.66;10459454;28;20045;-74
2021/12/20 07:58:23;;;;;;;37.65;15.48;;;;;;;2.59;97.33;99223.63;10458735;28;20053;-73
2021/12/20 08:03:24;;;;;;;32.13;15.88;;;;;;;2.70;97.37;99192.78;10458209;28;20045;-74
2021/12/20 08:08:25;;;;;;;34.33;15.95;;;;;;;2.31;97.11;99107.47;10458474;28;20403;-74
2021/12/20 08:13:26;;;;;;;35.28;17.90;;;;;;;3.05;96.97;99234.97;10459137;28;20128;-74
2021/12/20 08:18:27;;;;;;;33.47;16.77;;;;;;;3.01;97.20;99226.56;10457009;28;20041;-73
2021/12/20 08:23:27;;;;;;;39.30;17.70;;;;;;;2.90;98.33;99205.78;10457425;28;20041;-74
2021/12/20 08:28:28;;;;;;;32.92;17.42;;;;;;;1.71;98.23;99011.78;10458419;28;20456;-74
2021/12/20 08:33:29;;;;;;;35.70;16.05;;;;;;;2.61;98.60;99162.19;10439709;28;20037;-74
2021/12/20 08:38:30;;;;;;;29.13;14.80;;;;;;;3.17;98.32;99224.16;10456828;28;20040;-74
2021/12/20 08:43:31;;;;;;;31.98;15.18;;;;;;;3.13;99.06;99204.41;10457133;28;20048;-74
2021/12/20 08:48:33;;;;;;;33.85;16.35;;;;;;;3.07;98.89;99178.75;10456941;28;20105;-74
2021/12/20 08:53:34;;;;;;;32.45;15.60;;;;;;;2.42;98.08;99058.28;10456420;28;20052;-74
2021/12/20 08:58:35;;;;;;;32.03;15.68;;;;;;;2.58;98.37;99072.53;10439142;28;20041;-74
2021/12/20 09:03:35;;;;;;;30.90;14.90;;;;;;;2.73;99.24;99108.59;10456273;28;20052;-74
2021/12/20 09:08:38;;;;;;;32.60;15.93;;;;;;;3.39;99.39;99214.19;10456146;28;20029;-74
2021/12/20 09:13:41;;;;;;;35.33;16.02;;;;;;;3.32;99.71;99205.25;10456201;28;20540;-74
2021/12/20 09:18:43;;;;;;;33.00;15.98;;;;;;;2.92;99.20;99140.91;10456730;28;20043;-74
2021/12/20 09:23:44;;;;;;;33.90;16.25;;;;;;;2.63;99.42;99097.34;10454458;28;20489;-74
2021/12/20 09:28:45;;;;;;;30.70;14.55;;;;;;;3.45;100.00;99189.97;10454756;28;20037;-73
2021/12/20 09:33:45;;;;;;;25.65;13.35;;;;;;;3.39;99.22;99173.00;10455299;28;20044;-74
2021/12/20 09:38:47;;;;;;;31.83;14.85;;;;;;;3.55;99.43;99218.75;10456076;28;20100;-77
2021/12/20 09:43:49;;;;;;;22.80;12.30;;;;;;;2.98;99.68;99121.94;10454869;28;20048;-73
2021/12/20 09:48:50;;;;;;;21.63;12.07;;;;;;;3.60;100.00;99238.34;10454456;28;20060;-74
2021/12/20 09:53:51;;;;;;;24.95;13.25;;;;;;;3.65;99.49;99241.34;10454243;28;20090;-73
2021/12/20 09:58:58;;;;;;;19.65;11.00;;;;;;;3.01;99.90;99120.81;10454094;28;20045;-74
2021/12/20 10:03:59;;;;;;;23.15;11.18;;;;;;;3.55;99.53;99209.06;10454470;28;20041;-74
2021/12/20 10:09:09;;;;;;;19.08;9.68;;;;;;;2.99;99.25;99107.84;10454851;28;20045;-74
2021/12/20 10:14:14;;;;;;;16.50;9.00;;;;;;;3.54;99.99;99204.81;10452582;28;20041;-73
2021/12/20 10:19:35;;;;;;;16.95;8.32;;;;;;;3.80;100.00;99211.91;10454184;28;20167;-74
2021/12/20 10:24:38;;;;;;;18.05;8.27;;;;;;;3.76;100.00;99207.94;10452994;28;20535;-73
2021/12/20 10:29:39;;;;;;;14.18;8.02;;;;;;;3.88;100.00;99219.84;10435793;28;20106;-73
2021/12/20 10:34:40;;;;;;;12.20;7.07;;;;;;;3.66;99.81;99151.06;10453774;28;20114;-73
2021/12/20 10:39:45;;;;;;;11.60;6.60;;;;;;;4.08;99.13;99187.16;10453954;28;20519;-73
2021/12/20 10:45:12;;;;;;;10.55;5.00;;;;;;;4.23;98.46;99187.41;10452817;28;20076;-73
2021/12/20 10:50:29;;;;;;;9.40;5.47;;;;;;;4.04;98.05;99175.31;10453521;28;20155;-73
2021/12/20 10:55:44;;;;;;;10.50;5.80;;;;;;;2.53;96.88;98954.19;10437306;28;20040;-73
2021/12/20 11:01:12;;;;;;;12.68;6.13;;;;;;;4.00;96.45;99209.91;10461710;28;20052;-73
2021/12/20 11:11:19;;;;;;;13.52;7.15;;;;;;;3.94;96.38;99208.72;10460294;28;20413;-73
2021/12/20 11:16:29;;;;;;;11.35;5.60;;;;;;;4.03;95.48;99196.47;10460715;28;20033;-73
2021/12/20 11:21:30;;;;;;;9.15;5.50;;;;;;;4.04;95.38;99188.44;10459295;28;20079;-73
2021/12/20 11:26:31;;;;;;;10.38;5.72;;;;;;;3.98;95.00;99151.44;10458870;28;20064;-73
2021/12/20 11:31:32;;;;;;;7.13;4.38;;;;;;;3.35;93.76;99076.31;10460090;28;20041;-73
2021/12/20 11:36:34;;;;;;;6.10;3.05;;;;;;;3.77;93.57;99157.03;10460060;28;20041;-73
2021/12/20 11:41:36;;;;;;;4.43;2.88;;;;;;;4.04;93.51;99198.97;10459752;28;20044;-73
2021/12/20 11:47:04;;;;;;;6.72;3.70;;;;;;;3.20;92.48;99087.38;10459469;28;20400;-73
2021/12/20 11:52:13;;;;;;;10.05;4.70;;;;;;;4.03;91.95;99241.97;10458524;28;20057;-73
2021/12/20 11:57:32;;;;;;;6.88;4.15;;;;;;;4.09;92.07;99238.72;10459676;28;20060;-73
2021/12/20 12:02:39;;;;;;;6.40;3.95;;;;;;;3.05;91.22;99114.28;10458248;28;20424;-73
2021/12/20 12:07:41;;;;;;;8.98;4.45;;;;;;;3.29;92.47;99145.16;10458453;28;20052;-73
2021/12/20 12:12:45;;;;;;;7.78;4.13;;;;;;;3.12;92.15;99110.09;10457873;28;20523;-73
2021/12/20 12:17:54;;;;;;;8.00;4.90;;;;;;;3.94;91.84;99247.31;10458195;28;20036;-73
2021/12/20 12:23:09;;;;;;;9.40;5.00;;;;;;;3.43;91.93;99170.91;10440357;28;20068;-72
2021/12/20 12:28:12;;;;;;;8.60;4.85;;;;;;;3.80;92.51;99219.78;10458118;28;20045;-72
2021/12/20 12:33:13;;;;;;;7.20;4.38;;;;;;;3.88;92.46;99240.88;10474911;28;20040;-72
2021/12/20 12:38:20;;;;;;;8.88;4.88;;;;;;;3.87;92.41;99241.84;10471601;28;20049;-73
2021/12/20 12:43:52;;;;;;;8.30;4.80;;;;;;;3.94;92.74;99224.50;10456683;28;20045;-72
2021/12/20 12:48:53;;;;;;;8.45;4.18;;;;;;;2.34;92.53;98969.09;10467296;28;20048;-73
2021/12/20 12:53:55;;;;;;;7.85;4.75;;;;;;;2.28;93.22;98985.41;10495754;28;20040;-73
2021/12/20 12:59:14;;;;;;;8.13;4.57;;;;;;;3.95;93.07;99262.94;10492104;28;20072;-73
2021/12/20 13:04:16;;;;;;;9.57;4.68;;;;;;;3.54;93.05;99212.69;10456445;28;20127;-73
2021/12/20 13:09:31;;;;;;;11.60;3.60;;;;;;;3.79;93.27;99247.03;10490445;28;20127;-74
2021/12/20 13:14:34;;;;;;;6.10;3.00;;;;;;;3.67;93.06;99239.38;10496868;28;20285;-75
2021/12/20 13:19:36;;;;;;;7.47;3.72;;;;;;;3.80;93.06;99269.69;10471915;28;20399;-72
2021/12/20 13:24:36;;;;;;;12.93;3.90;;;;;;;3.86;92.83;99293.56;10496870;28;20040;-73
2021/12/20 13:29:38;;;;;;;6.35;4.00;;;;;;;3.09;92.90;99161.06;10496893;28;20408;-71
2021/12/20 13:34:39;;;;;;;13.65;6.93;;;;;;;3.12;92.40;99175.72;10495591;28;20032;-73
2021/12/20 13:39:52;;;;;;;14.77;5.93;;;;;;;3.77;92.63;99276.09;10497342;28;20113;-72
2021/12/20 13:44:52;;;;;;;12.70;4.40;;;;;;;3.09;92.62;99186.50;10496684;28;20495;-72
2021/12/20 13:49:53;;;;;;;19.88;5.68;;;;;;;3.49;92.54;99272.69;10495946;28;20079;-71
2021/12/20 13:54:54;;;;;;;8.43;5.13;;;;;;;3.39;93.19;99287.69;10493687;28;20093;-73
2021/12/20 14:00:02;;;;;;;8.00;4.45;;;;;;;3.33;93.83;99291.72;10477399;28;20055;-73
2021/12/20 14:05:14;;;;;;;11.95;4.55;;;;;;;3.34;93.40;99300.44;10492345;28;20040;-75
2021/12/20 14:10:16;;;;;;;9.73;5.07;;;;;;;3.13;93.83;99275.25;10454508;28;20056;-73
2021/12/20 14:15:20;;;;;;;13.25;5.00;;;;;;;1.48;93.72;99016.53;10460397;28;20044;-72
2021/12/20 14:20:23;;;;;;;10.17;5.23;;;;;;;2.88;94.06;99252.34;10494948;28;20040;-71
2021/12/20 14:25:35;;;;;;;9.60;5.03;;;;;;;3.23;94.47;99303.25;10477700;28;20043;-72
2021/12/20 14:30:46;;;;;;;10.80;5.65;;;;;;;3.11;94.99;99285.09;10484011;28;20143;-73
2021/12/20 14:36:14;;;;;;;13.00;5.68;;;;;;;3.29;95.17;99323.66;10502993;28;20052;-72
2021/12/20 14:41:18;;;;;;;16.23;6.38;;;;;;;3.28;95.12;99337.75;10501850;28;20131;-72
2021/12/20 14:46:38;;;;;;;16.03;5.50;;;;;;;2.39;95.17;99199.25;10502949;28;20063;-72
2021/12/20 14:51:39;;;;;;;12.27;5.68;;;;;;;3.31;95.65;99337.47;10499448;28;20060;-72
2021/12/20 14:56:47;;;;;;;19.20;6.22;;;;;;;2.98;95.55;99281.97;10501881;28;20040;-73
2021/12/20 15:01:49;;;;;;;11.60;6.07;;;;;;;2.48;95.71;99209.72;10483214;28;20039;-71
2021/12/20 15:06:54;;;;;;;11.05;6.15;;;;;;;3.31;95.78;99345.34;10475190;28;20139;-71
2021/12/20 15:11:55;;;;;;;17.05;8.90;;;;;;;3.16;95.39;99331.88;10497973;28;20060;-72
2021/12/20 15:16:57;;;;;;;22.02;10.43;;;;;;;3.20;95.91;99320.97;10501718;28;20040;-72
2021/12/20 15:21:58;;;;;;;17.60;9.48;;;;;;;2.64;96.37;99237.94;10501427;28;20056;-72
2021/12/20 15:26:59;;;;;;;13.90;6.97;;;;;;;3.15;95.75;99311.88;10501959;28;20091;-72
2021/12/20 15:32:00;;;;;;;16.90;7.18;;;;;;;3.23;95.57;99326.88;10500860;28;20036;-72
2021/12/20 15:37:02;;;;;;;14.20;7.22;;;;;;;3.40;95.80;99341.84;10501851;28;20040;-71
2021/12/20 15:42:06;;;;;;;14.38;7.28;;;;;;;2.73;96.04;99233.63;10500598;28;20056;-72
2021/12/20 15:47:07;;;;;;;16.20;8.07;;;;;;;3.17;95.43;99295.00;10501212;28;20049;-73
2021/12/20 15:52:08;;;;;;;14.73;6.95;;;;;;;3.14;95.71;99302.31;10501185;28;20063;-72
2021/12/20 15:57:09;;;;;;;13.70;7.78;;;;;;;3.40;95.84;99339.22;10498014;28;20048;-72
2021/12/20 16:02:10;;;;;;;18.23;8.38;;;;;;;2.72;95.86;99226.72;10497879;28;20041;-73
2021/12/20 16:07:11;;;;;;;14.40;8.00;;;;;;;2.94;96.17;99270.94;10495057;28;20037;-72
2021/12/20 16:12:12;;;;;;;17.65;8.05;;;;;;;3.35;95.58;99328.31;10497529;28;20401;-72
2021/12/20 16:17:13;;;;;;;16.45;7.97;;;;;;;3.03;95.88;99285.00;10497531;28;20051;-72
2021/12/20 16:22:13;;;;;;;14.30;8.43;;;;;;;2.59;95.46;99194.78;10496420;28;20048;-73
2021/12/20 16:27:14;;;;;;;16.08;8.90;;;;;;;2.37;95.54;99169.78;10487115;28;20380;-73
2021/12/20 16:32:15;;;;;;;15.52;8.75;;;;;;;3.41;95.75;99319.84;10489639;28;20071;-72
2021/12/20 16:37:16;;;;;;;17.10;9.05;;;;;;;2.94;95.30;99252.56;10488283;28;20041;-73
2021/12/20 16:42:19;;;;;;;17.42;8.73;;;;;;;3.02;95.24;99279.88;10488512;28;20113;-72
2021/12/20 16:47:24;;;;;;;19.30;9.00;;;;;;;3.17;95.75;99283.66;10483841;28;20122;-73
2021/12/20 16:52:25;;;;;;;18.15;9.32;;;;;;;3.41;95.22;99323.31;10489258;28;20053;-75
2021/12/20 16:57:27;;;;;;;24.15;9.25;;;;;;;3.38;94.91;99325.41;10495878;28;20048;-72
2021/12/20 17:02:43;;;;;;;17.88;8.88;;;;;;;3.00;94.62;99276.59;10481716;28;20044;-70
2021/12/20 17:07:43;;;;;;;19.13;8.43;;;;;;;3.33;95.21;99325.84;10483438;28;20101;-70
2021/12/20 17:12:45;;;;;;;19.52;9.05;;;;;;;3.24;94.78;99315.41;10488667;28;20105;-70
2021/12/20 17:17:45;;;;;;;16.27;8.90;;;;;;;1.72;94.32;99081.47;10497941;28;20496;-73
2021/12/20 17:22:46;;;;;;;17.48;9.25;;;;;;;2.43;95.19;99185.75;10497449;28;20041;-70
2021/12/20 17:27:47;;;;;;;17.98;9.23;;;;;;;2.06;94.33;99156.91;10494891;28;20040;-75
2021/12/20 17:32:48;;;;;;;18.75;10.02;;;;;;;2.74;95.19;99266.75;10493719;28;20036;-71
2021/12/20 17:37:50;;;;;;;18.17;10.55;;;;;;;2.27;95.57;99168.00;10493705;28;20043;-70
2021/12/20 17:42:51;;;;;;;21.02;10.10;;;;;;;2.93;95.49;99281.56;10487887;28;20037;-72
2021/12/20 17:47:52;;;;;;;19.73;10.68;;;;;;;2.09;95.64;99130.41;10486517;28;20041;-72
2021/12/20 17:52:54;;;;;;;19.67;10.35;;;;;;;1.92;95.34;99097.97;10487340;28;20078;-73
2021/12/20 17:57:55;;;;;;;19.20;9.77;;;;;;;2.66;95.06;99238.63;10481883;28;20036;-71
2021/12/20 18:02:55;;;;;;;17.73;9.88;;;;;;;2.47;96.02;99213.31;10490467;28;20037;-73
2021/12/20 18:07:56;;;;;;;20.30;9.70;;;;;;;2.78;95.68;99262.03;10493367;28;20040;-72
2021/12/20 18:12:58;;;;;;;19.52;10.68;;;;;;;2.92;95.74;99286.00;10493707;28;20472;-72
2021/12/20 18:17:59;;;;;;;20.67;10.65;;;;;;;2.89;95.46;99274.97;10494278;28;20497;-72
2021/12/20 18:23:03;;;;;;;24.27;11.43;;;;;;;2.66;95.83;99240.41;10473578;28;20060;-72
2021/12/20 18:28:05;;;;;;;22.03;11.10;;;;;;;2.68;95.62;99248.97;10493076;28;20036;-72
2021/12/20 18:33:09;;;;;;;22.20;11.55;;;;;;;2.97;96.38;99268.03;10458620;28;20488;-72
2021/12/20 18:38:10;;;;;;;21.63;10.82;;;;;;;2.36;95.63;99171.53;10494793;28;20498;-72
2021/12/20 18:43:11;;;;;;;26.67;11.02;;;;;;;3.02;95.77;99259.72;10494505;28;20040;-72
2021/12/20 18:48:17;;;;;;;20.85;11.65;;;;;;;2.77;95.92;99207.94;10475392;28;20049;-72
2021/12/20 18:53:18;;;;;;;20.90;10.95;;;;;;;2.86;95.83;99228.03;10481419;28;20043;-72
2021/12/20 18:58:19;;;;;;;19.27;9.50;;;;;;;1.76;95.22;99037.50;10472074;28;20049;-71
2021/12/20 19:03:20;;;;;;;21.48;10.93;;;;;;;2.59;95.10;99174.63;10459205;28;20144;-71
2021/12/20 19:08:25;;;;;;;24.48;10.90;;;;;;;2.94;94.71;99225.53;10493510;28;20040;-72
2021/12/20 19:13:33;;;;;;;19.58;10.07;;;;;;;2.84;95.11;99229.97;10495117;28;20098;-72
2021/12/20 19:18:34;;;;;;;20.98;9.73;;;;;;;1.27;94.78;98960.97;10498430;28;20047;-71
2021/12/20 19:23:35;;;;;;;20.10;10.32;;;;;;;2.83;95.55;99212.59;10501711;28;20037;-70
2021/12/20 19:28:36;;;;;;;17.73;9.57;;;;;;;2.13;95.25;99097.75;10496436;28;20055;-72
2021/12/20 19:33:38;;;;;;;16.30;9.15;;;;;;;2.92;94.89;99209.91;10498543;28;20098;-73
2021/12/20 19:38:39;;;;;;;16.08;9.25;;;;;;;2.36;95.33;99140.09;10469822;28;20048;-72
2021/12/20 19:43:40;;;;;;;19.25;8.73;;;;;;;1.89;95.10;99061.59;10464074;28;20067;-75
2021/12/20 19:48:41;;;;;;;15.68;8.55;;;;;;;2.76;95.29;99190.56;10471735;28;20214;-71
2021/12/20 19:53:42;;;;;;;17.15;8.55;;;;;;;2.53;95.66;99135.06;10500724;28;20125;-71
2021/12/20 19:58:47;;;;;;;15.00;8.43;;;;;;;2.18;95.14;99086.81;10499384;28;20059;-72
2021/12/20 20:03:50;;;;;;;16.70;8.63;;;;;;;1.92;95.14;99036.91;10498027;28;20045;-71
2021/12/20 20:08:51;;;;;;;14.57;8.52;;;;;;;1.82;95.14;99024.69;10481434;28;20120;-71
2021/12/20 20:13:52;;;;;;;15.45;8.05;;;;;;;2.59;95.21;99165.94;10499500;28;20033;-71
2021/12/20 20:18:56;;;;;;;17.38;8.93;;;;;;;2.25;95.67;99103.63;10499613;28;20044;-71
2021/12/20 20:23:57;;;;;;;18.83;9.30;;;;;;;2.69;95.29;99178.03;10499226;28;20036;-72
2021/12/20 20:28:59;;;;;;;14.82;8.23;;;;;;;2.58;95.44;99165.13;10499453;28;20044;-71
2021/12/20 20:34:00;;;;;;;17.42;8.80;;;;;;;1.77;95.27;99026.06;10499578;28;20044;-70
2021/12/20 20:39:04;;;;;;;18.10;9.90;;;;;;;2.04;95.16;99070.63;10498414;28;20040;-71
2021/12/20 20:44:05;;;;;;;20.87;9.70;;;;;;;2.47;95.53;99134.66;10497941;28;20389;-71
2021/12/20 20:49:07;;;;;;;18.42;10.00;;;;;;;2.60;95.44;99155.28;10499280;28;20060;-70
2021/12/20 20:54:08;;;;;;;21.73;9.95;;;;;;;2.77;95.58;99171.22;10497669;28;20032;-71
2021/12/20 20:59:09;;;;;;;21.05;10.48;;;;;;;2.83;95.82;99160.97;10498009;28;20044;-71
2021/12/20 21:04:23;;;;;;;20.42;10.75;;;;;;;2.74;95.02;99141.69;10494931;28;20052;-71
2021/12/20 21:09:23;;;;;;;20.93;10.03;;;;;;;2.78;95.46;99152.72;10497151;28;20045;-71
2021/12/20 21:14:25;;;;;;;26.23;10.20;;;;;;;2.90;95.16;99169.06;10497339;28;20510;-70
2021/12/20 21:19:26;;;;;;;19.25;10.10;;;;;;;2.82;94.68;99174.25;10497234;28;20041;-70
2021/12/20 21:24:27;;;;;;;23.15;10.75;;;;;;;2.86;94.79;99159.84;10497416;28;20036;-70
2021/12/20 21:29:28;;;;;;;22.10;10.85;;;;;;;2.86;94.89;99163.28;10496359;28;20459;-71
2021/12/20 21:34:29;;;;;;;22.55;11.63;;;;;;;2.96;95.23;99158.81;10496665;28;20089;-72
2021/12/20 21:39:30;;;;;;;21.40;11.50;;;;;;;2.97;94.72;99151.78;10496482;28;20048;-71
2021/12/20 21:44:31;;;;;;;21.42;10.68;;;;;;;2.36;94.05;99058.03;10494246;28;20045;-70
2021/12/20 21:49:32;;;;;;;23.13;10.32;;;;;;;2.63;93.79;99099.97;10496189;28;20144;-71
2021/12/20 21:54:33;;;;;;;22.90;10.90;;;;;;;2.91;94.87;99150.56;10495515;28;20107;-71
2021/12/20 21:59:34;;;;;;;24.45;12.35;;;;;;;2.00;94.60;98979.38;10478749;28;20051;-71
2021/12/20 22:04:35;;;;;;;26.40;10.93;;;;;;;2.98;94.43;99153.41;10496416;28;20043;-71
2021/12/20 22:09:36;;;;;;;20.42;10.68;;;;;;;2.91;94.45;99137.44;10495854;28;20488;-71
2021/12/20 22:14:37;;;;;;;21.85;10.73;;;;;;;2.48;94.77;99076.03;10496765;28;20572;-71
2021/12/20 22:19:38;;;;;;;25.08;11.23;;;;;;;2.34;94.36;99044.28;10496644;28;20131;-71
2021/12/20 22:24:39;;;;;;;22.50;11.63;;;;;;;1.98;94.55;98974.28;10495552;28;20045;-71
2021/12/20 22:29:40;;;;;;;24.95;12.80;;;;;;;1.86;94.78;98958.94;10495508;28;20043;-71
2021/12/20 22:34:41;;;;;;;23.27;11.55;;;;;;;2.49;95.30;99061.13;10494902;28;20381;-72
2021/12/20 22:39:41;;;;;;;27.15;12.32;;;;;;;1.80;94.93;98937.59;10477139;28;20083;-71
2021/12/20 22:44:42;;;;;;;24.35;12.02;;;;;;;2.77;94.78;99103.03;10476712;28;20421;-71
2021/12/20 22:49:44;;;;;;;23.63;11.98;;;;;;;1.71;94.83;98945.50;10495385;28;20063;-71
2021/12/20 22:54:45;;;;;;;24.48;12.60;;;;;;;2.76;95.40;99132.88;10501396;28;20071;-71
2021/12/20 22:59:46;;;;;;;24.98;13.27;;;;;;;1.63;95.58;98945.41;10502863;28;20067;-72
2021/12/20 23:04:46;;;;;;;22.48;11.93;;;;;;;2.62;96.03;99121.91;10502772;28;20047;-71
2021/12/20 23:09:47;;;;;;;26.67;12.45;;;;;;;1.87;96.67;98969.25;10502317;28;20492;-72
2021/12/20 23:14:48;;;;;;;33.00;14.88;;;;;;;2.45;96.34;99062.38;10501585;28;20131;-71
2021/12/20 23:19:49;;;;;;;29.23;13.82;;;;;;;2.53;96.65;99069.53;10501267;28;20496;-72
2021/12/20 23:24:50;;;;;;;26.90;13.60;;;;;;;2.61;95.92;99083.53;10502162;28;20041;-72
2021/12/20 23:29:51;;;;;;;25.38;13.00;;;;;;;2.94;95.64;99126.66;10501611;28;20123;-71
2021/12/20 23:34:52;;;;;;;25.77;13.55;;;;;;;2.55;96.21;99086.75;10501454;28;20037;-71
2021/12/20 23:39:57;;;;;;;29.30;13.40;;;;;;;2.80;95.99;99129.78;10483935;28;20450;-72
2021/12/20 23:44:57;;;;;;;30.85;13.38;;;;;;;2.64;97.16;99098.97;10501443;28;20476;-74